createdAt,value
2022-10-08T00:00:00.369Z,95216.19
2022-10-08T00:02:28.730Z,95216.69
2022-10-08T00:04:56.425Z,95216.81
2022-10-08T00:07:24.394Z,95218.97
2022-10-08T00:09:52.053Z,95218.25
2022-10-08T00:12:19.698Z,95213.16
2022-10-08T00:14:48.714Z,95211.38
2022-10-08T00:17:16.397Z,95219.44
2022-10-08T00:19:44.517Z,95219.44
2022-10-08T00:22:12.150Z,95225.03
2022-10-08T00:24:40.128Z,95217.09
2022-10-08T00:27:07.788Z,95219.72
2022-10-08T00:29:35.402Z,95212.63
2022-10-08T00:32:04.655Z,95207.50
2022-10-08T00:34:32.355Z,95213.44
2022-10-08T00:37:00.039Z,95210.47
2022-10-08T00:39:27.713Z,95212.50
2022-10-08T00:41:56.919Z,95206.50
2022-10-08T00:44:55.523Z,95199.38
2022-10-08T00:47:31.286Z,95194.75
2022-10-08T00:50:00.607Z,95196.66
2022-10-08T00:52:33.604Z,95192.88
2022-10-08T00:55:01.915Z,95193.44
2022-10-08T00:57:30.165Z,95192.28
2022-10-08T00:59:57.832Z,95193.34
2022-10-08T01:02:26.921Z,95199.50
2022-10-08T01:04:54.637Z,95197.03
2022-10-08T01:07:25.791Z,95197.16
2022-10-08T01:09:57.713Z,95188.91
2022-10-08T01:12:37.319Z,95185.13
2022-10-08T01:15:09.573Z,95186.66
2022-10-08T01:17:39.079Z,95174.84
2022-10-08T01:20:20.994Z,95178.03
2022-10-08T01:23:04.472Z,95182.88
2022-10-08T01:25:38.006Z,95170.31
2022-10-08T01:28:12.379Z,95169.88
2022-10-08T01:30:44.818Z,95160.50
2022-10-08T01:33:14.856Z,95158.59
2022-10-08T01:35:45.691Z,95164.28
2022-10-08T01:38:16.383Z,95163.13
2022-10-08T01:40:45.559Z,95159.22
2022-10-08T01:43:17.031Z,95164.66
2022-10-08T01:45:48.787Z,95163.50
2022-10-08T01:48:20.720Z,95159.69
2022-10-08T01:50:54.315Z,95163.16
2022-10-08T01:53:23.460Z,95155.22
2022-10-08T01:55:54.038Z,95152.50
2022-10-08T01:58:28.974Z,95149.28
2022-10-08T02:00:58.310Z,95144.44
2022-10-08T02:03:26.012Z,95147.16
2022-10-08T02:05:55.492Z,95154.72
2022-10-08T02:08:24.508Z,95150.13
2022-10-08T02:10:52.963Z,95154.72
2022-10-08T02:13:22.852Z,95163.63
2022-10-08T02:15:55.936Z,95157.34
2022-10-08T02:18:31.101Z,95149.28
2022-10-08T02:21:00.858Z,95147.66
2022-10-08T02:23:30.970Z,95150.72
2022-10-08T02:26:00.096Z,95153.44
2022-10-08T02:28:32.938Z,95154.25
2022-10-08T02:31:05.998Z,95151.28
2022-10-08T02:33:37.864Z,95159.22
2022-10-08T02:36:08.163Z,95168.19
2022-10-08T02:38:38.048Z,95163.38
2022-10-08T02:41:06.865Z,95170.09
2022-10-08T02:43:38.642Z,95165.47
2022-10-08T02:46:10.361Z,95167.13
2022-10-08T02:48:42.253Z,95169.28
2022-10-08T02:51:13.776Z,95165.75
2022-10-08T02:53:41.770Z,95164.78
2022-10-08T02:56:13.961Z,95167.75
2022-10-08T02:58:43.631Z,95166.69
2022-10-08T03:01:15.163Z,95170.00
2022-10-08T03:03:47.247Z,95165.59
2022-10-08T03:06:15.946Z,95171.03
2022-10-08T03:08:49.144Z,95171.91
2022-10-08T03:11:17.356Z,95168.31
2022-10-08T03:13:47.909Z,95167.75
2022-10-08T03:16:19.227Z,95161.47
2022-10-08T03:18:47.221Z,95165.38
2022-10-08T03:21:15.921Z,95157.13
2022-10-08T03:23:43.672Z,95152.75
2022-10-08T03:26:11.327Z,95154.16
2022-10-08T03:28:39.026Z,95158.31
2022-10-08T03:31:08.311Z,95150.72
2022-10-08T03:33:36.066Z,95154.50
2022-10-08T03:36:03.780Z,95146.97
2022-10-08T03:38:31.425Z,95148.94
2022-10-08T03:40:59.894Z,95152.00
2022-10-08T03:43:32.123Z,95151.53
2022-10-08T03:45:59.733Z,95163.03
2022-10-08T03:48:29.331Z,95156.25
2022-10-08T03:50:58.696Z,95157.69
2022-10-08T03:53:27.297Z,95158.03
2022-10-08T03:55:55.347Z,95160.06
2022-10-08T03:58:23.042Z,95145.94
2022-10-08T04:00:58.235Z,95150.59
2022-10-08T04:03:26.392Z,95162.28
2022-10-08T04:05:55.376Z,95165.38
2022-10-08T04:08:23.242Z,95168.91
2022-10-08T04:10:50.889Z,95161.34
2022-10-08T04:13:19.134Z,95164.06
2022-10-08T04:15:48.407Z,95161.91
2022-10-08T04:18:16.189Z,95157.06
2022-10-08T04:20:44.394Z,95159.53
2022-10-08T04:23:13.428Z,95157.06
2022-10-08T04:25:50.168Z,95166.31
2022-10-08T04:28:17.875Z,95162.53
2022-10-08T04:30:55.705Z,95154.94
2022-10-08T04:33:23.523Z,95156.09
2022-10-08T04:35:51.118Z,95163.78
2022-10-08T04:38:20.338Z,95154.56
2022-10-08T04:40:48.040Z,95151.31
2022-10-08T04:43:16.536Z,95163.63
2022-10-08T04:45:45.074Z,95152.84
2022-10-08T04:48:12.865Z,95154.28
2022-10-08T04:50:40.583Z,95152.69
2022-10-08T04:53:08.486Z,95158.25
2022-10-08T04:55:37.509Z,95150.41
2022-10-08T04:58:05.136Z,95153.47
2022-10-08T05:00:32.885Z,95152.75
2022-10-08T05:03:00.668Z,95155.78
2022-10-08T05:05:28.365Z,95154.00
2022-10-08T05:07:56.826Z,95158.72
2022-10-08T05:10:24.854Z,95162.03
2022-10-08T05:12:53.877Z,95163.66
2022-10-08T05:15:21.492Z,95176.22
2022-10-08T05:17:49.103Z,95176.22
2022-10-08T05:20:16.844Z,95172.44
2022-10-08T05:22:44.739Z,95173.75
2022-10-08T05:25:12.503Z,95178.13
2022-10-08T05:27:40.208Z,95181.09
2022-10-08T05:30:10.525Z,95181.69
2022-10-08T05:32:38.149Z,95184.41
2022-10-08T05:35:06.397Z,95190.69
2022-10-08T05:37:34.278Z,95181.44
2022-10-08T05:40:01.881Z,95183.69
2022-10-08T05:42:29.543Z,95182.59
2022-10-08T05:44:57.204Z,95190.28
2022-10-08T05:47:26.341Z,95184.34
2022-10-08T05:49:53.974Z,95185.78
2022-10-08T05:52:21.637Z,95189.06
2022-10-08T05:54:49.278Z,95192.38
2022-10-08T05:57:16.966Z,95177.44
2022-10-08T05:59:44.627Z,95184.03
2022-10-08T06:02:12.444Z,95182.47
2022-10-08T06:04:41.598Z,95181.72
2022-10-08T06:07:09.260Z,95185.38
2022-10-08T06:09:36.867Z,95185.22
2022-10-08T06:12:04.552Z,95188.03
2022-10-08T06:14:32.156Z,95191.41
2022-10-08T06:16:59.799Z,95196.94
2022-10-08T06:19:27.532Z,95194.88
2022-10-08T06:21:56.535Z,95201.00
2022-10-08T06:24:24.227Z,95195.72
2022-10-08T06:26:51.857Z,95204.88
2022-10-08T06:29:20.072Z,95196.88
2022-10-08T06:31:47.798Z,95196.41
2022-10-08T06:34:15.803Z,95202.84
2022-10-08T06:36:43.477Z,95201.31
2022-10-08T06:39:14.589Z,95204.53
2022-10-08T06:41:42.465Z,95195.94
2022-10-08T06:44:13.067Z,95200.72
2022-10-08T06:46:40.863Z,95200.31
2022-10-08T06:49:08.577Z,95210.53
2022-10-08T06:51:36.224Z,95221.59
2022-10-08T06:54:07.989Z,95233.16
2022-10-08T06:56:38.479Z,95235.44
2022-10-08T06:59:06.715Z,95252.72
2022-10-08T07:01:35.420Z,95255.50
2022-10-08T07:04:04.420Z,95265.69
2022-10-08T07:06:32.314Z,95266.50
2022-10-08T07:09:01.381Z,95273.66
2022-10-08T07:11:30.219Z,95276.94
2022-10-08T07:13:59.642Z,95279.13
2022-10-08T07:16:28.730Z,95279.94
2022-10-08T07:18:58.396Z,95281.09
2022-10-08T07:21:26.733Z,95290.38
2022-10-08T07:23:54.328Z,95287.63
2022-10-08T07:26:23.316Z,95292.84
2022-10-08T07:28:52.386Z,95297.00
2022-10-08T07:31:23.072Z,95289.34
2022-10-08T07:33:50.887Z,95299.78
2022-10-08T07:36:19.885Z,95296.19
2022-10-08T07:38:48.311Z,95304.41
2022-10-08T07:41:16.262Z,95308.28
2022-10-08T07:43:44.334Z,95300.09
2022-10-08T07:46:14.126Z,95305.03
2022-10-08T07:48:43.212Z,95305.09
2022-10-08T07:51:11.956Z,95313.03
2022-10-08T07:53:39.881Z,95307.06
2022-10-08T07:56:08.628Z,95312.25
2022-10-08T07:58:36.491Z,95312.00
2022-10-08T08:01:06.169Z,95312.03
2022-10-08T08:03:34.102Z,95314.25
2022-10-08T08:06:03.894Z,95316.75
2022-10-08T08:08:31.741Z,95318.16
2022-10-08T08:10:59.966Z,95317.63
2022-10-08T08:13:31.913Z,95317.94
2022-10-08T08:16:06.450Z,95318.81
2022-10-08T08:18:35.563Z,95316.09
2022-10-08T08:21:06.022Z,95315.06
2022-10-08T08:23:34.898Z,95315.94
2022-10-08T08:26:03.171Z,95317.63
2022-10-08T08:28:31.222Z,95317.16
2022-10-08T08:31:08.253Z,95316.94
2022-10-08T08:33:36.067Z,95310.16
2022-10-08T08:36:05.660Z,95315.47
2022-10-08T08:38:35.753Z,95312.53
2022-10-08T08:41:12.778Z,95316.41
2022-10-08T08:43:41.901Z,95315.63
2022-10-08T08:46:10.954Z,95324.75
2022-10-08T08:48:39.519Z,95320.41
2022-10-08T08:51:08.559Z,95315.50
2022-10-08T08:53:36.298Z,95323.25
2022-10-08T08:56:06.472Z,95317.25
2022-10-08T08:58:38.858Z,95319.22
2022-10-08T09:01:15.295Z,95321.22
2022-10-08T09:03:45.514Z,95322.34
2022-10-08T09:06:17.058Z,95324.03
2022-10-08T09:08:47.472Z,95319.09
2022-10-08T09:11:17.397Z,95319.09
2022-10-08T09:13:49.094Z,95327.06
2022-10-08T09:16:17.566Z,95330.66
2022-10-08T09:18:47.761Z,95326.78
2022-10-08T09:21:17.195Z,95325.69
2022-10-08T09:23:45.208Z,95328.69
2022-10-08T09:26:16.848Z,95324.31
2022-10-08T09:28:46.691Z,95331.16
2022-10-08T09:31:37.690Z,95319.59
2022-10-08T09:34:16.054Z,95332.56
2022-10-08T09:36:46.768Z,95334.75
2022-10-08T09:39:18.765Z,95332.28
2022-10-08T09:41:47.517Z,95329.25
2022-10-08T09:44:18.849Z,95335.00
2022-10-08T09:46:46.846Z,95345.75
2022-10-08T09:49:32.172Z,95333.63
2022-10-08T09:52:05.121Z,95330.88
2022-10-08T09:54:36.600Z,95337.22
2022-10-08T09:57:04.852Z,95333.06
2022-10-08T09:59:38.293Z,95333.91
2022-10-08T10:02:10.116Z,95338.59
2022-10-08T10:04:40.368Z,95342.69
2022-10-08T10:07:09.348Z,95340.53
2022-10-08T10:09:42.054Z,95339.13
2022-10-08T10:12:14.963Z,95351.50
2022-10-08T10:14:45.023Z,95352.63
2022-10-08T10:17:18.109Z,95342.97
2022-10-08T10:19:50.830Z,95349.31
2022-10-08T10:22:23.027Z,95341.88
2022-10-08T10:24:51.593Z,95348.22
2022-10-08T10:27:24.945Z,95347.66
2022-10-08T10:30:04.904Z,95349.31
2022-10-08T10:32:36.455Z,95340.50
2022-10-08T10:35:07.640Z,95341.34
2022-10-08T10:37:41.498Z,95340.81
2022-10-08T10:40:33.990Z,95338.03
2022-10-08T10:43:11.869Z,95335.28
2022-10-08T10:45:41.153Z,95333.91
2022-10-08T10:48:10.440Z,95329.53
2022-10-08T10:50:42.019Z,95324.28
2022-10-08T10:53:17.472Z,95317.44
2022-10-08T10:55:54.726Z,95320.44
2022-10-08T10:58:31.977Z,95322.63
2022-10-08T11:01:05.910Z,95318.50
2022-10-08T11:03:40.612Z,95325.38
2022-10-08T11:06:32.020Z,95319.63
2022-10-08T11:09:04.448Z,95321.00
2022-10-08T11:11:36.155Z,95320.44
2022-10-08T11:14:16.679Z,95316.31
2022-10-08T11:16:53.802Z,95310.25
2022-10-08T11:19:32.742Z,95304.50
2022-10-08T11:22:08.228Z,95315.19
2022-10-08T11:24:53.706Z,95306.41
2022-10-08T11:27:29.093Z,95301.47
2022-10-08T11:30:03.229Z,95299.81
2022-10-08T11:32:31.600Z,95314.13
2022-10-08T11:35:05.478Z,95308.09
2022-10-08T11:37:36.132Z,95309.44
2022-10-08T11:40:11.451Z,95301.75
2022-10-08T11:42:48.567Z,95310.84
2022-10-08T11:45:31.104Z,95301.22
2022-10-08T11:48:00.011Z,95304.25
2022-10-08T11:50:30.893Z,95303.69
2022-10-08T11:53:01.797Z,95311.38
2022-10-08T11:55:33.544Z,95304.81
2022-10-08T11:58:08.091Z,95303.41
2022-10-08T12:00:39.742Z,95311.38
2022-10-08T12:03:18.528Z,95308.38
2022-10-08T12:05:50.586Z,95304.22
2022-10-08T12:08:53.226Z,95299.56
2022-10-08T12:11:54.199Z,95303.13
2022-10-08T12:14:45.656Z,95298.19
2022-10-08T12:17:13.580Z,95299.56
2022-10-08T12:20:03.191Z,95297.34
2022-10-08T12:22:45.094Z,95297.03
2022-10-08T12:25:38.705Z,95292.41
2022-10-08T12:28:52.318Z,95293.22
2022-10-08T12:31:32.210Z,95292.94
2022-10-08T12:34:02.040Z,95300.91
2022-10-08T12:36:56.793Z,95302.00
2022-10-08T12:39:32.836Z,95291.88
2022-10-08T12:42:08.425Z,95285.25
2022-10-08T12:44:45.135Z,95280.53
2022-10-08T12:47:26.782Z,95278.31
2022-10-08T12:49:58.105Z,95278.34
2022-10-08T12:52:25.880Z,95275.31
2022-10-08T12:54:55.264Z,95280.03
2022-10-08T12:57:24.796Z,95271.75
2022-10-08T12:59:52.529Z,95274.75
2022-10-08T13:02:29.075Z,95291.19
2022-10-08T13:04:59.912Z,95284.63
2022-10-08T13:07:29.689Z,95289.53
2022-10-08T13:09:59.647Z,95293.13
2022-10-08T13:12:27.829Z,95294.22
2022-10-08T13:15:05.220Z,95299.69
2022-10-08T13:17:35.588Z,95293.41
2022-10-08T13:20:16.863Z,95294.75
2022-10-08T13:22:44.813Z,95296.66
2022-10-08T13:25:35.133Z,95295.31
2022-10-08T13:28:11.204Z,95291.72
2022-10-08T13:30:38.909Z,95295.28
2022-10-08T13:33:13.417Z,95299.03
2022-10-08T13:35:41.800Z,95289.16
2022-10-08T13:38:12.060Z,95291.81
2022-10-08T13:40:39.674Z,95288.50
2022-10-08T13:43:07.928Z,95290.69
2022-10-08T13:45:37.661Z,95287.16
2022-10-08T13:48:09.652Z,95289.06
2022-10-08T13:50:37.291Z,95289.84
2022-10-08T13:53:05.569Z,95292.84
2022-10-08T13:55:34.979Z,95288.75
2022-10-08T13:58:05.314Z,95298.63
2022-10-08T14:00:35.619Z,95290.09
2022-10-08T14:03:03.411Z,95290.06
2022-10-08T14:05:34.400Z,95298.28
2022-10-08T14:08:03.409Z,95295.03
2022-10-08T14:10:31.356Z,95291.47
2022-10-08T14:12:59.108Z,95284.91
2022-10-08T14:15:26.727Z,95291.50
2022-10-08T14:17:54.378Z,95291.19
2022-10-08T14:20:22.044Z,95293.88
2022-10-08T14:22:51.663Z,95297.19
2022-10-08T14:25:22.499Z,95301.31
2022-10-08T14:27:50.908Z,95308.41
2022-10-08T14:30:19.405Z,95307.06
2022-10-08T14:32:47.069Z,95297.44
2022-10-08T14:35:14.985Z,95304.84
2022-10-08T14:37:42.659Z,95306.53
2022-10-08T14:40:16.557Z,95304.75
2022-10-08T14:42:44.243Z,95301.63
2022-10-08T14:45:12.343Z,95307.31
2022-10-08T14:47:40.332Z,95304.25
2022-10-08T14:50:09.790Z,95303.63
2022-10-08T14:52:41.863Z,95302.81
2022-10-08T14:55:14.068Z,95300.00
2022-10-08T14:57:41.789Z,95308.75
2022-10-08T15:00:10.287Z,95313.50
2022-10-08T15:02:37.949Z,95309.03
2022-10-08T15:05:06.263Z,95307.47
2022-10-08T15:07:33.914Z,95321.63
2022-10-08T15:10:01.549Z,95326.28
2022-10-08T15:12:30.632Z,95325.28
2022-10-08T15:14:58.288Z,95324.72
2022-10-08T15:17:26.071Z,95331.81
2022-10-08T15:19:54.123Z,95335.41
2022-10-08T15:22:21.873Z,95348.78
2022-10-08T15:24:49.553Z,95349.22
2022-10-08T15:27:20.566Z,95360.28
2022-10-08T15:29:50.085Z,95354.88
2022-10-08T15:32:17.769Z,95352.63
2022-10-08T15:34:45.447Z,95345.91
2022-10-08T15:37:13.129Z,95346.22
2022-10-08T15:39:40.806Z,95342.16
2022-10-08T15:42:08.795Z,95346.88
2022-10-08T15:44:36.457Z,95342.44
2022-10-08T15:47:07.073Z,95343.84
2022-10-08T15:49:36.547Z,95344.94
2022-10-08T15:52:05.569Z,95341.91
2022-10-08T15:54:35.683Z,95352.84
2022-10-08T15:57:03.332Z,95351.28
2022-10-08T15:59:31.013Z,95353.09
2022-10-08T16:01:58.694Z,95366.06
2022-10-08T16:04:28.042Z,95361.25
2022-10-08T16:06:55.677Z,95362.38
2022-10-08T16:09:23.833Z,95369.28
2022-10-08T16:11:52.178Z,95366.03
2022-10-08T16:14:20.939Z,95374.81
2022-10-08T16:16:49.553Z,95373.44
2022-10-08T16:19:18.830Z,95380.00
2022-10-08T16:21:49.186Z,95383.06
2022-10-08T16:24:16.962Z,95389.66
2022-10-08T16:26:44.910Z,95387.53
2022-10-08T16:29:14.562Z,95400.09
2022-10-08T16:31:43.412Z,95401.22
2022-10-08T16:34:14.529Z,95400.28
2022-10-08T16:36:42.561Z,95407.75
2022-10-08T16:39:13.470Z,95408.06
2022-10-08T16:41:41.203Z,95414.63
2022-10-08T16:44:12.565Z,95411.38
2022-10-08T16:46:42.529Z,95414.94
2022-10-08T16:49:16.449Z,95420.16
2022-10-08T16:51:48.234Z,95427.28
2022-10-08T16:54:18.861Z,95423.66
2022-10-08T16:56:47.127Z,95431.31
2022-10-08T16:59:17.348Z,95434.22
2022-10-08T17:01:46.257Z,95437.47
2022-10-08T17:04:15.117Z,95446.47
2022-10-08T17:06:43.723Z,95445.41
2022-10-08T17:09:11.800Z,95456.88
2022-10-08T17:11:41.837Z,95456.88
2022-10-08T17:14:11.543Z,95461.50
2022-10-08T17:16:39.971Z,95462.34
2022-10-08T17:19:07.726Z,95469.47
2022-10-08T17:21:35.719Z,95472.47
2022-10-08T17:24:03.728Z,95474.09
2022-10-08T17:26:32.030Z,95473.03
2022-10-08T17:29:05.459Z,95483.16
2022-10-08T17:31:33.468Z,95485.28
2022-10-08T17:34:02.965Z,95482.53
2022-10-08T17:36:32.201Z,95484.72
2022-10-08T17:39:01.429Z,95491.25
2022-10-08T17:41:30.503Z,95485.78
2022-10-08T17:44:00.081Z,95495.09
2022-10-08T17:46:30.664Z,95505.97
2022-10-08T17:48:58.352Z,95498.47
2022-10-08T17:51:28.089Z,95503.47
2022-10-08T17:53:57.380Z,95512.25
2022-10-08T17:56:26.170Z,95512.94
2022-10-08T17:58:54.123Z,95518.84
2022-10-08T18:01:25.471Z,95518.03
2022-10-08T18:03:56.015Z,95524.56
2022-10-08T18:06:25.564Z,95523.66
2022-10-08T18:08:55.498Z,95528.81
2022-10-08T18:11:23.257Z,95525.34
2022-10-08T18:13:51.068Z,95531.38
2022-10-08T18:16:19.573Z,95533.63
2022-10-08T18:18:48.422Z,95523.81
2022-10-08T18:21:18.723Z,95539.97
2022-10-08T18:23:46.988Z,95545.13
2022-10-08T18:26:17.976Z,95545.38
2022-10-08T18:28:45.849Z,95545.38
2022-10-08T18:31:14.947Z,95554.00
2022-10-08T18:33:44.698Z,95556.97
2022-10-08T18:36:14.351Z,95562.59
2022-10-08T18:38:45.199Z,95551.91
2022-10-08T18:41:14.648Z,95550.84
2022-10-08T18:43:42.611Z,95557.03
2022-10-08T18:46:10.330Z,95557.28
2022-10-08T18:48:38.397Z,95557.28
2022-10-08T18:51:07.444Z,95563.84
2022-10-08T18:53:35.991Z,95576.91
2022-10-08T18:56:08.015Z,95567.06
2022-10-08T18:58:35.900Z,95569.56
2022-10-08T19:01:03.590Z,95575.75
2022-10-08T19:03:31.325Z,95579.13
2022-10-08T19:05:58.944Z,95584.75
2022-10-08T19:08:26.551Z,95589.41
2022-10-08T19:10:54.163Z,95587.50
2022-10-08T19:13:23.133Z,95591.88
2022-10-08T19:15:50.800Z,95594.00
2022-10-08T19:18:18.439Z,95601.63
2022-10-08T19:20:46.071Z,95595.34
2022-10-08T19:23:13.756Z,95605.78
2022-10-08T19:25:41.360Z,95604.94
2022-10-08T19:28:09.018Z,95616.25
2022-10-08T19:30:38.102Z,95614.31
2022-10-08T19:33:05.722Z,95617.63
2022-10-08T19:35:33.349Z,95620.94
2022-10-08T19:38:00.989Z,95617.88
2022-10-08T19:40:28.604Z,95625.84
2022-10-08T19:42:56.205Z,95623.09
2022-10-08T19:45:23.866Z,95630.88
2022-10-08T19:47:52.865Z,95633.84
2022-10-08T19:50:20.514Z,95631.94
2022-10-08T19:52:51.731Z,95640.75
2022-10-08T19:55:19.648Z,95642.63
2022-10-08T19:57:47.338Z,95645.94
2022-10-08T20:00:15.851Z,95650.34
2022-10-08T20:02:43.537Z,95645.69
2022-10-08T20:05:12.607Z,95653.66
2022-10-08T20:07:40.267Z,95652.50
2022-10-08T20:10:08.547Z,95657.28
2022-10-08T20:12:36.180Z,95657.28
2022-10-08T20:15:04.036Z,95658.44
2022-10-08T20:17:31.633Z,95656.28
2022-10-08T20:20:20.634Z,95660.09
2022-10-08T20:22:48.457Z,95673.16
2022-10-08T20:25:19.206Z,95672.34
2022-10-08T20:27:46.855Z,95672.09
2022-10-08T20:30:15.297Z,95675.31
2022-10-08T20:32:42.962Z,95679.38
2022-10-08T20:35:10.715Z,95681.25
2022-10-08T20:37:38.376Z,95672.00
2022-10-08T20:40:08.040Z,95676.13
2022-10-08T20:42:36.223Z,95675.88
2022-10-08T20:45:04.137Z,95680.34
2022-10-08T20:47:31.749Z,95683.00
2022-10-08T20:49:59.365Z,95678.81
2022-10-08T20:52:26.990Z,95676.09
2022-10-08T20:54:54.588Z,95682.25
2022-10-08T20:57:23.706Z,95679.31
2022-10-08T20:59:51.313Z,95680.97
2022-10-08T21:02:19.955Z,95685.63
2022-10-08T21:04:47.681Z,95681.69
2022-10-08T21:07:15.316Z,95693.09
2022-10-08T21:09:42.912Z,95696.06
2022-10-08T21:12:10.595Z,95695.47
2022-10-08T21:14:39.555Z,95696.19
2022-10-08T21:17:07.194Z,95692.63
2022-10-08T21:19:34.795Z,95698.56
2022-10-08T21:22:02.549Z,95691.47
2022-10-08T21:24:30.481Z,95692.28
2022-10-08T21:26:58.129Z,95697.38
2022-10-08T21:29:25.716Z,95696.41
2022-10-08T21:31:54.805Z,95699.97
2022-10-08T21:34:22.476Z,95704.22
2022-10-08T21:36:50.160Z,95708.72
2022-10-08T21:39:18.505Z,95718.44
2022-10-08T21:41:46.481Z,95721.47
2022-10-08T21:44:14.352Z,95720.53
2022-10-08T21:46:43.145Z,95723.16
2022-10-08T21:49:14.465Z,95719.34
2022-10-08T21:51:42.330Z,95726.56
2022-10-08T21:54:11.205Z,95722.66
2022-10-08T21:56:39.905Z,95723.69
2022-10-08T21:59:09.329Z,95720.88
2022-10-08T22:01:38.818Z,95719.72
2022-10-08T22:04:08.149Z,95721.72
2022-10-08T22:06:38.743Z,95721.97
2022-10-08T22:09:07.154Z,95724.44
2022-10-08T22:11:35.117Z,95719.00
2022-10-08T22:14:02.828Z,95721.97
2022-10-08T22:16:30.605Z,95714.50
2022-10-08T22:18:58.778Z,95713.75
2022-10-08T22:21:26.527Z,95714.94
2022-10-08T22:23:55.634Z,95709.25
2022-10-08T22:26:25.323Z,95709.47
2022-10-08T22:28:52.986Z,95706.50
2022-10-08T22:31:21.255Z,95705.50
2022-10-08T22:33:49.171Z,95702.06
2022-10-08T22:36:19.060Z,95697.53
2022-10-08T22:38:47.451Z,95697.53
2022-10-08T22:41:18.344Z,95702.16
2022-10-08T22:43:46.356Z,95701.22
2022-10-08T22:46:16.529Z,95701.38
2022-10-08T22:48:44.375Z,95695.19
2022-10-08T22:51:14.616Z,95697.00
2022-10-08T22:53:42.728Z,95693.22
2022-10-08T22:56:12.659Z,95689.28
2022-10-08T22:58:41.738Z,95688.34
2022-10-08T23:01:10.800Z,95681.53
2022-10-08T23:03:39.233Z,95685.13
2022-10-08T23:06:08.603Z,95677.31
2022-10-08T23:08:37.093Z,95689.38
2022-10-08T23:11:05.256Z,95687.75
2022-10-08T23:13:33.010Z,95680.63
2022-10-08T23:16:03.576Z,95678.13
2022-10-08T23:18:32.297Z,95668.75
2022-10-08T23:21:02.355Z,95669.59
2022-10-08T23:23:30.436Z,95666.03
2022-10-08T23:25:59.825Z,95675.03
2022-10-08T23:28:27.910Z,95671.34
2022-10-08T23:30:55.644Z,95676.19
2022-10-08T23:33:24.668Z,95669.78
2022-10-08T23:35:56.478Z,95669.19
2022-10-08T23:38:24.196Z,95671.31
2022-10-08T23:40:52.015Z,95679.50
2022-10-08T23:43:19.776Z,95674.28
2022-10-08T23:45:47.407Z,95679.09
2022-10-08T23:48:15.103Z,95678.50
2022-10-08T23:50:44.068Z,95676.22
2022-10-08T23:53:11.752Z,95683.22
2022-10-08T23:55:39.379Z,95676.09
2022-10-08T23:58:06.989Z,95679.91
